weather.gov     
National Weather Service

Terminal Aerodrome Forecast
NWS Homepage
This page is being discontinued on March 12, 2014.
The same data is available at this site. Please update your bookmarks.
Thank you, and we apologize for the inconvenience.
Please send an email to SR-SRH.Webmaster@noaa.gov with any concerns.


Current Version
Previous Version:    01  02  03  04  05  06  07  08  09  10  11  12  13  14  15  16  17  18  19  20  21  22  23  24  25  26  27  28  29  30  
   31  32  33  34  35  36  37  38  39  40  41  42  43  44  45  46  47  
[Printable]
952
FTAK31 PAFA 260723 AAA
TAFAOM
TAF AMD
PAOM 260723Z 2607/2706 23019KT P6SM FEW024 FEW030 OVC180
     FM261500 15015G20KT 4SM -SN BR OVC015
     FM261800 12025G30KT 1SM -SN BR OVC007
     FM262100 12030G35KT 1/2SM SN BLSN OVC003=


952
FTAK31 PAFA 260723 AAA
TAFAOM
TAF AMD
PAOM 260723Z 2607/2706 23019KT P6SM FEW024 FEW030 OVC180
     FM261500 15015G20KT 4SM -SN BR OVC015
     FM261800 12025G30KT 1SM -SN BR OVC007
     FM262100 12030G35KT 1/2SM SN BLSN OVC003=




U.S. Dept. of Commerce
NOAA National Weather Service
1325 East West Highway
Silver Spring, MD 20910
E-mail: w-nws.webmaster@noaa.gov
Page last modified: May 16, 2007
NATIONAL WEATHER SERVICE: for Safety, for Work, for Fun - FOR LIFE